sensor_id;sensor_type;location;lat;lon;timestamp;pressure;altitude;pressure_sealevel;temperature;humidity
38716;BME280;24833;49.324;8.694;2023-04-01T00:00:59;98373.53;;;9.54;82.06
38716;BME280;24833;49.324;8.694;2023-04-01T00:03:28;98362.88;;;9.54;81.95
38716;BME280;24833;49.324;8.694;2023-04-01T00:05:57;98354.66;;;9.56;81.93
38716;BME280;24833;49.324;8.694;2023-04-01T00:08:25;98347.69;;;9.55;82.39
38716;BME280;24833;49.324;8.694;2023-04-01T00:10:53;98363.69;;;9.55;82.04
38716;BME280;24833;49.324;8.694;2023-04-01T00:13:20;98356.72;;;9.54;82.05
38716;BME280;24833;49.324;8.694;2023-04-01T00:15:48;98350.59;;;9.53;81.85
38716;BME280;24833;49.324;8.694;2023-04-01T00:18:15;98363.09;;;9.53;82.25
38716;BME280;24833;49.324;8.694;2023-04-01T00:20:50;98348.38;;;9.50;81.67
38716;BME280;24833;49.324;8.694;2023-04-01T00:23:19;98344.06;;;9.49;81.94
38716;BME280;24833;49.324;8.694;2023-04-01T00:25:47;98341.63;;;9.48;82.11
38716;BME280;24833;49.324;8.694;2023-04-01T00:28:17;98337.59;;;9.45;81.97
38716;BME280;24833;49.324;8.694;2023-04-01T00:30:45;98346.63;;;9.44;81.99
38716;BME280;24833;49.324;8.694;2023-04-01T00:33:13;98342.34;;;9.43;82.09
38716;BME280;24833;49.324;8.694;2023-04-01T00:35:40;98339.06;;;9.41;82.05
38716;BME280;24833;49.324;8.694;2023-04-01T00:38:07;98345.41;;;9.40;82.06
38716;BME280;24833;49.324;8.694;2023-04-01T00:40:38;98356.09;;;9.40;81.96
38716;BME280;24833;49.324;8.694;2023-04-01T00:43:17;98350.16;;;9.38;81.62
38716;BME280;24833;49.324;8.694;2023-04-01T00:45:48;98345.88;;;9.37;82.28
38716;BME280;24833;49.324;8.694;2023-04-01T00:48:31;98349.78;;;9.35;82.07
38716;BME280;24833;49.324;8.694;2023-04-01T00:51:05;98342.59;;;9.35;82.23
38716;BME280;24833;49.324;8.694;2023-04-01T00:53:36;98351.41;;;9.36;82.27
38716;BME280;24833;49.324;8.694;2023-04-01T00:56:45;98355.13;;;9.35;81.76
38716;BME280;24833;49.324;8.694;2023-04-01T00:59:43;98347.34;;;9.33;81.45
38716;BME280;24833;49.324;8.694;2023-04-01T01:02:12;98351.63;;;9.34;81.96
38716;BME280;24833;49.324;8.694;2023-04-01T01:04:40;98350.03;;;9.33;82.06
38716;BME280;24833;49.324;8.694;2023-04-01T01:07:26;98344.69;;;9.33;82.46
38716;BME280;24833;49.324;8.694;2023-04-01T01:10:16;98367.63;;;9.34;81.82
38716;BME280;24833;49.324;8.694;2023-04-01T01:16:19;98340.19;;;9.34;81.69
38716;BME280;24833;49.324;8.694;2023-04-01T01:19:52;98334.03;;;9.33;81.46
38716;BME280;24833;49.324;8.694;2023-04-01T01:22:49;98337.50;;;9.34;81.76
38716;BME280;24833;49.324;8.694;2023-04-01T01:34:32;98327.09;;;9.32;82.08
38716;BME280;24833;49.324;8.694;2023-04-01T01:37:12;98332.41;;;9.32;81.93
38716;BME280;24833;49.324;8.694;2023-04-01T01:39:43;98326.28;;;9.32;82.00
38716;BME280;24833;49.324;8.694;2023-04-01T01:42:17;98316.44;;;9.32;82.29
38716;BME280;24833;49.324;8.694;2023-04-01T01:44:46;98308.66;;;9.31;82.05
38716;BME280;24833;49.324;8.694;2023-04-01T01:47:16;98320.13;;;9.31;82.01
38716;BME280;24833;49.324;8.694;2023-04-01T01:49:45;98319.31;;;9.31;81.74
38716;BME280;24833;49.324;8.694;2023-04-01T01:52:13;98306.81;;;9.31;82.07
38716;BME280;24833;49.324;8.694;2023-04-01T01:54:53;98309.47;;;9.31;81.51
38716;BME280;24833;49.324;8.694;2023-04-01T01:57:28;98305.78;;;9.32;81.92
38716;BME280;24833;49.324;8.694;2023-04-01T02:00:07;98306.81;;;9.31;81.68
38716;BME280;24833;49.324;8.694;2023-04-01T02:02:44;98317.25;;;9.33;82.14
38716;BME280;24833;49.324;8.694;2023-04-01T02:05:19;98313.75;;;9.32;81.70
38716;BME280;24833;49.324;8.694;2023-04-01T02:08:06;98306.59;;;9.33;81.74
38716;BME280;24833;49.324;8.694;2023-04-01T02:10:39;98307.41;;;9.33;81.86
38716;BME280;24833;49.324;8.694;2023-04-01T02:13:26;98316.19;;;9.34;81.65
38716;BME280;24833;49.324;8.694;2023-04-01T02:16:00;98310.63;;;9.35;82.07
38716;BME280;24833;49.324;8.694;2023-04-01T02:18:30;98310.63;;;9.35;81.74
38716;BME280;24833;49.324;8.694;2023-04-01T02:20:59;98314.97;;;9.36;81.73
38716;BME280;24833;49.324;8.694;2023-04-01T02:23:28;98307.53;;;9.38;81.70
38716;BME280;24833;49.324;8.694;2023-04-01T02:25:55;98323.53;;;9.38;81.81
38716;BME280;24833;49.324;8.694;2023-04-01T02:28:23;98302.81;;;9.40;81.80
38716;BME280;24833;49.324;8.694;2023-04-01T02:30:52;98325.72;;;9.41;81.84
38716;BME280;24833;49.324;8.694;2023-04-01T02:33:20;98306.03;;;9.42;81.49
38716;BME280;24833;49.324;8.694;2023-04-01T02:35:47;98308.50;;;9.44;81.54
38716;BME280;24833;49.324;8.694;2023-04-01T02:38:15;98321.59;;;9.45;81.33
38716;BME280;24833;49.324;8.694;2023-04-01T02:40:50;98296.56;;;9.46;80.97
38716;BME280;24833;49.324;8.694;2023-04-01T02:43:18;98304.34;;;9.48;81.24
38716;BME280;24833;49.324;8.694;2023-04-01T02:45:46;98307.59;;;9.50;81.23
38716;BME280;24833;49.324;8.694;2023-04-01T02:48:13;98303.09;;;9.50;81.10
38716;BME280;24833;49.324;8.694;2023-04-01T02:50:40;98308.41;;;9.50;81.12
38716;BME280;24833;49.324;8.694;2023-04-01T02:53:08;98305.53;;;9.52;81.22
38716;BME280;24833;49.324;8.694;2023-04-01T02:55:35;98311.66;;;9.52;81.31
38716;BME280;24833;49.324;8.694;2023-04-01T02:58:02;98317.81;;;9.53;81.40
38716;BME280;24833;49.324;8.694;2023-04-01T03:00:29;98313.28;;;9.53;81.35
38716;BME280;24833;49.324;8.694;2023-04-01T03:02:57;98312.25;;;9.54;81.70
38716;BME280;24833;49.324;8.694;2023-04-01T03:05:24;98310.63;;;9.53;81.65
38716;BME280;24833;49.324;8.694;2023-04-01T03:07:51;98307.97;;;9.53;81.52
38716;BME280;24833;49.324;8.694;2023-04-01T03:10:18;98308.78;;;9.54;81.97
38716;BME280;24833;49.324;8.694;2023-04-01T03:12:45;98306.34;;;9.52;81.49
38716;BME280;24833;49.324;8.694;2023-04-01T03:15:14;98316.19;;;9.52;81.51
38716;BME280;24833;49.324;8.694;2023-04-01T03:17:42;98302.06;;;9.51;81.45
38716;BME280;24833;49.324;8.694;2023-04-01T03:20:11;98305.75;;;9.50;81.11
38716;BME280;24833;49.324;8.694;2023-04-01T03:22:38;98303.09;;;9.50;81.41
38716;BME280;24833;49.324;8.694;2023-04-01T03:25:09;98315.81;;;9.48;81.69
38716;BME280;24833;49.324;8.694;2023-04-01T03:27:37;98312.31;;;9.48;81.21
38716;BME280;24833;49.324;8.694;2023-04-01T03:30:06;98312.56;;;9.46;81.53
38716;BME280;24833;49.324;8.694;2023-04-01T03:32:39;98311.38;;;9.42;81.39
38716;BME280;24833;49.324;8.694;2023-04-01T03:35:06;98315.31;;;9.40;81.30
38716;BME280;24833;49.324;8.694;2023-04-01T03:37:34;98313.91;;;9.37;81.49
38716;BME280;24833;49.324;8.694;2023-04-01T03:40:01;98312.50;;;9.35;81.22
38716;BME280;24833;49.324;8.694;2023-04-01T03:42:30;98323.38;;;9.33;81.44
38716;BME280;24833;49.324;8.694;2023-04-01T03:44:58;98308.66;;;9.31;81.38
38716;BME280;24833;49.324;8.694;2023-04-01T03:47:25;98314.44;;;9.27;81.55
38716;BME280;24833;49.324;8.694;2023-04-01T03:49:52;98317.31;;;9.26;81.53
38716;BME280;24833;49.324;8.694;2023-04-01T03:52:19;98319.41;;;9.24;81.41
38716;BME280;24833;49.324;8.694;2023-04-01T03:54:46;98310.00;;;9.21;81.28
38716;BME280;24833;49.324;8.694;2023-04-01T03:57:13;98342.19;;;9.20;81.60
38716;BME280;24833;49.324;8.694;2023-04-01T03:59:41;98325.63;;;9.18;81.63
38716;BME280;24833;49.324;8.694;2023-04-01T04:02:08;98325.63;;;9.18;81.50
38716;BME280;24833;49.324;8.694;2023-04-01T04:04:35;98317.84;;;9.16;81.81
38716;BME280;24833;49.324;8.694;2023-04-01T04:07:03;98327.66;;;9.16;81.53
38716;BME280;24833;49.324;8.694;2023-04-01T04:09:41;98323.63;;;9.13;81.76
38716;BME280;24833;49.324;8.694;2023-04-01T04:12:09;98327.53;;;9.11;81.79
38716;BME280;24833;49.324;8.694;2023-04-01T04:14:36;98326.50;;;9.12;81.87
38716;BME280;24833;49.324;8.694;2023-04-01T04:17:04;98322.41;;;9.09;81.67
38716;BME280;24833;49.324;8.694;2023-04-01T04:19:34;98338.63;;;9.08;81.51
38716;BME280;24833;49.324;8.694;2023-04-01T04:22:01;98332.47;;;9.07;81.80
38716;BME280;24833;49.324;8.694;2023-04-01T04:24:28;98343.38;;;9.06;82.33
38716;BME280;24833;49.324;8.694;2023-04-01T04:27:05;98338.47;;;9.02;82.35
38716;BME280;24833;49.324;8.694;2023-04-01T04:29:33;98332.56;;;9.00;82.39
38716;BME280;24833;49.324;8.694;2023-04-01T04:32:01;98329.91;;;9.00;82.21
38716;BME280;24833;49.324;8.694;2023-04-01T04:34:28;98326.41;;;9.00;82.04
38716;BME280;24833;49.324;8.694;2023-04-01T04:36:55;98331.16;;;8.98;82.03
38716;BME280;24833;49.324;8.694;2023-04-01T04:39:27;98321.75;;;8.95;82.06
38716;BME280;24833;49.324;8.694;2023-04-01T04:41:55;98315.63;;;8.95;82.34
38716;BME280;24833;49.324;8.694;2023-04-01T04:44:22;98311.31;;;8.94;82.37
38716;BME280;24833;49.324;8.694;2023-04-01T04:46:49;98316.88;;;8.92;81.88
38716;BME280;24833;49.324;8.694;2023-04-01T04:49:16;98305.84;;;8.89;81.95
38716;BME280;24833;49.324;8.694;2023-04-01T04:51:43;98318.56;;;8.87;82.30
38716;BME280;24833;49.324;8.694;2023-04-01T04:54:12;98303.63;;;8.86;82.57
38716;BME280;24833;49.324;8.694;2023-04-01T04:56:48;98302.25;;;8.83;82.35
38716;BME280;24833;49.324;8.694;2023-04-01T04:59:15;98297.94;;;8.82;82.28
38716;BME280;24833;49.324;8.694;2023-04-01T05:01:49;98308.81;;;8.81;82.47
38716;BME280;24833;49.324;8.694;2023-04-01T05:04:16;98297.34;;;8.80;82.50
38716;BME280;24833;49.324;8.694;2023-04-01T05:06:44;98300.00;;;8.80;82.05
38716;BME280;24833;49.324;8.694;2023-04-01T05:09:12;98293.06;;;8.79;82.24
38716;BME280;24833;49.324;8.694;2023-04-01T05:11:39;98287.50;;;8.81;82.37
38716;BME280;24833;49.324;8.694;2023-04-01T05:14:13;98299.78;;;8.82;82.25
38716;BME280;24833;49.324;8.694;2023-04-01T05:16:42;98297.94;;;8.82;82.22
38716;BME280;24833;49.324;8.694;2023-04-01T05:19:09;98290.56;;;8.84;82.25
38716;BME280;24833;49.324;8.694;2023-04-01T05:21:36;98309.78;;;8.86;82.25
38716;BME280;24833;49.324;8.694;2023-04-01T05:24:07;98300.53;;;8.89;82.22
38716;BME280;24833;49.324;8.694;2023-04-01T05:26:35;98293.97;;;8.91;82.54
38716;BME280;24833;49.324;8.694;2023-04-01T05:29:04;98297.22;;;8.93;82.27
38716;BME280;24833;49.324;8.694;2023-04-01T05:31:32;98289.81;;;8.95;82.29
38716;BME280;24833;49.324;8.694;2023-04-01T05:33:59;98293.09;;;8.97;82.49
38716;BME280;24833;49.324;8.694;2023-04-01T05:36:27;98292.84;;;8.99;82.29
38716;BME280;24833;49.324;8.694;2023-04-01T05:38:55;98288.91;;;9.01;82.56
38716;BME280;24833;49.324;8.694;2023-04-01T05:41:25;98291.38;;;9.03;82.69
38716;BME280;24833;49.324;8.694;2023-04-01T05:43:52;98290.13;;;9.06;82.54
38716;BME280;24833;49.324;8.694;2023-04-01T05:46:38;98298.69;;;9.08;82.33
38716;BME280;24833;49.324;8.694;2023-04-01T05:49:13;98288.03;;;9.08;82.15
38716;BME280;24833;49.324;8.694;2023-04-01T05:51:40;98284.94;;;9.11;82.72
38716;BME280;24833;49.324;8.694;2023-04-01T05:54:08;98286.56;;;9.12;82.28
38716;BME280;24833;49.324;8.694;2023-04-01T05:56:35;98292.47;;;9.14;82.08
38716;BME280;24833;49.324;8.694;2023-04-01T05:59:02;98287.72;;;9.16;82.00
38716;BME280;24833;49.324;8.694;2023-04-01T06:01:29;98298.19;;;9.17;82.10
38716;BME280;24833;49.324;8.694;2023-04-01T06:03:56;98291.56;;;9.20;82.44
38716;BME280;24833;49.324;8.694;2023-04-01T06:06:28;98284.41;;;9.20;82.54
38716;BME280;24833;49.324;8.694;2023-04-01T06:09:13;98289.72;;;9.20;82.72
38716;BME280;24833;49.324;8.694;2023-04-01T06:15:10;98281.31;;;9.23;82.56
38716;BME280;24833;49.324;8.694;2023-04-01T06:20:48;98282.69;;;9.26;81.94
38716;BME280;24833;49.324;8.694;2023-04-01T06:26:37;98284.91;;;9.29;82.59
38716;BME280;24833;49.324;8.694;2023-04-01T06:29:35;98286.56;;;9.30;82.20
38716;BME280;24833;49.324;8.694;2023-04-01T06:38:18;98288.41;;;9.30;83.01
38716;BME280;24833;49.324;8.694;2023-04-01T06:44:54;98299.50;;;9.26;83.06
38716;BME280;24833;49.324;8.694;2023-04-01T06:48:31;98296.47;;;9.23;83.13
38716;BME280;24833;49.324;8.694;2023-04-01T06:54:52;98293.66;;;9.18;82.85
38716;BME280;24833;49.324;8.694;2023-04-01T06:57:59;98297.56;;;9.15;83.39
38716;BME280;24833;49.324;8.694;2023-04-01T07:00:39;98304.16;;;9.13;83.11
38716;BME280;24833;49.324;8.694;2023-04-01T07:06:13;98292.78;;;9.06;83.79
38716;BME280;24833;49.324;8.694;2023-04-01T07:08:52;98292.19;;;9.04;83.26
38716;BME280;24833;49.324;8.694;2023-04-01T07:11:31;98283.81;;;9.00;83.88
38716;BME280;24833;49.324;8.694;2023-04-01T07:14:32;98285.09;;;8.97;83.57
38716;BME280;24833;49.324;8.694;2023-04-01T07:17:14;98295.75;;;8.97;83.19
38716;BME280;24833;49.324;8.694;2023-04-01T07:20:15;98287.75;;;8.97;84.40
38716;BME280;24833;49.324;8.694;2023-04-01T07:22:49;98295.13;;;8.95;84.00
38716;BME280;24833;49.324;8.694;2023-04-01T07:25:34;98301.25;;;8.96;83.82
38716;BME280;24833;49.324;8.694;2023-04-01T07:28:31;98294.31;;;8.95;83.97
38716;BME280;24833;49.324;8.694;2023-04-01T07:34:13;98305.78;;;8.95;83.84
38716;BME280;24833;49.324;8.694;2023-04-01T07:58:35;98322.06;;;9.06;85.39
38716;BME280;24833;49.324;8.694;2023-04-01T08:07:20;98315.03;;;9.11;85.07
38716;BME280;24833;49.324;8.694;2023-04-01T08:10:50;98305.19;;;9.12;86.44
38716;BME280;24833;49.324;8.694;2023-04-01T08:18:07;98307.63;;;9.13;86.21
38716;BME280;24833;49.324;8.694;2023-04-01T08:23:43;98336.13;;;9.13;85.87
38716;BME280;24833;49.324;8.694;2023-04-01T08:26:40;98311.34;;;9.12;86.17
38716;BME280;24833;49.324;8.694;2023-04-01T08:29:25;98310.31;;;9.13;85.60
38716;BME280;24833;49.324;8.694;2023-04-01T08:32:15;98330.56;;;9.14;85.63
38716;BME280;24833;49.324;8.694;2023-04-01T08:35:14;98307.22;;;9.16;85.99
38716;BME280;24833;49.324;8.694;2023-04-01T08:37:48;98311.50;;;9.17;86.29
38716;BME280;24833;49.324;8.694;2023-04-01T08:56:28;98323.53;;;9.20;85.97
38716;BME280;24833;49.324;8.694;2023-04-01T08:59:35;98321.91;;;9.19;86.32
38716;BME280;24833;49.324;8.694;2023-04-01T09:24:24;98328.78;;;9.26;87.17
38716;BME280;24833;49.324;8.694;2023-04-01T09:39:35;98347.84;;;9.42;87.18
38716;BME280;24833;49.324;8.694;2023-04-01T09:42:43;98348.66;;;9.42;87.23
38716;BME280;24833;49.324;8.694;2023-04-01T09:45:43;98342.91;;;9.45;86.76
38716;BME280;24833;49.324;8.694;2023-04-01T09:48:30;98346.97;;;9.48;87.01
38716;BME280;24833;49.324;8.694;2023-04-01T09:54:31;98353.25;;;9.53;87.45
38716;BME280;24833;49.324;8.694;2023-04-01T09:57:38;98360.44;;;9.53;87.08
38716;BME280;24833;49.324;8.694;2023-04-01T10:10:06;98352.13;;;9.61;87.24
38716;BME280;24833;49.324;8.694;2023-04-01T10:19:23;98360.03;;;9.68;87.49
38716;BME280;24833;49.324;8.694;2023-04-01T10:40:47;98371.13;;;9.83;87.68
38716;BME280;24833;49.324;8.694;2023-04-01T10:44:20;98364.16;;;9.82;87.33
38716;BME280;24833;49.324;8.694;2023-04-01T10:50:40;98371.50;;;9.87;87.80
38716;BME280;24833;49.324;8.694;2023-04-01T10:54:04;98372.06;;;9.89;87.70
38716;BME280;24833;49.324;8.694;2023-04-01T11:25:48;98375.75;;;10.06;87.56
38716;BME280;24833;49.324;8.694;2023-04-01T11:34:57;98377.34;;;10.07;87.88
38716;BME280;24833;49.324;8.694;2023-04-01T11:37:57;98385.94;;;10.09;87.60
38716;BME280;24833;49.324;8.694;2023-04-01T11:41:00;98399.06;;;10.10;87.58
38716;BME280;24833;49.324;8.694;2023-04-01T11:44:20;98387.78;;;10.08;87.81
38716;BME280;24833;49.324;8.694;2023-04-01T11:47:56;98390.47;;;10.08;87.74
38716;BME280;24833;49.324;8.694;2023-04-01T11:54:20;98404.41;;;10.10;87.63
38716;BME280;24833;49.324;8.694;2023-04-01T11:57:26;98397.41;;;10.09;88.05
38716;BME280;24833;49.324;8.694;2023-04-01T12:00:25;98400.94;;;10.10;87.84
38716;BME280;24833;49.324;8.694;2023-04-01T12:06:54;98408.94;;;10.10;88.10
38716;BME280;24833;49.324;8.694;2023-04-01T12:10:18;98415.06;;;10.10;87.94
38716;BME280;24833;49.324;8.694;2023-04-01T12:18:55;98426.19;;;10.07;88.11
38716;BME280;24833;49.324;8.694;2023-04-01T12:21:36;98422.94;;;10.05;88.51
38716;BME280;24833;49.324;8.694;2023-04-01T12:44:43;98426.03;;;10.02;88.29
38716;BME280;24833;49.324;8.694;2023-04-01T12:48:15;98418.84;;;10.03;88.15
38716;BME280;24833;49.324;8.694;2023-04-01T12:50:58;98420.50;;;10.04;88.08
38716;BME280;24833;49.324;8.694;2023-04-01T13:17:50;98469.56;;;10.15;87.71
38716;BME280;24833;49.324;8.694;2023-04-01T13:26:34;98454.28;;;10.22;88.06
38716;BME280;24833;49.324;8.694;2023-04-01T13:29:17;98455.94;;;10.23;87.61
38716;BME280;24833;49.324;8.694;2023-04-01T13:43:49;98470.63;;;10.32;87.43
38716;BME280;24833;49.324;8.694;2023-04-01T13:46:59;98470.63;;;10.32;87.10
38716;BME280;24833;49.324;8.694;2023-04-01T13:49:55;98465.28;;;10.32;87.50
38716;BME280;24833;49.324;8.694;2023-04-01T14:04:17;98470.66;;;10.44;87.38
38716;BME280;24833;49.324;8.694;2023-04-01T14:07:05;98487.25;;;10.46;87.48
38716;BME280;24833;49.324;8.694;2023-04-01T14:35:37;98481.25;;;10.50;86.25
38716;BME280;24833;49.324;8.694;2023-04-01T14:38:39;98485.53;;;10.51;86.20
38716;BME280;24833;49.324;8.694;2023-04-01T14:47:58;98498.66;;;10.53;86.25
38716;BME280;24833;49.324;8.694;2023-04-01T14:50:42;98492.28;;;10.54;85.90
38716;BME280;24833;49.324;8.694;2023-04-01T14:55:59;98494.13;;;10.53;86.24
38716;BME280;24833;49.324;8.694;2023-04-01T14:58:50;98512.81;;;10.53;86.00
38716;BME280;24833;49.324;8.694;2023-04-01T15:02:03;98503.19;;;10.52;85.75
38716;BME280;24833;49.324;8.694;2023-04-01T15:31:48;98523.91;;;10.39;86.23
38716;BME280;24833;49.324;8.694;2023-04-01T15:34:38;98519.00;;;10.35;85.94
38716;BME280;24833;49.324;8.694;2023-04-01T15:37:27;98524.00;;;10.32;86.40
38716;BME280;24833;49.324;8.694;2023-04-01T15:49:43;98533.47;;;10.28;86.29
38716;BME280;24833;49.324;8.694;2023-04-01T15:52:43;98532.66;;;10.27;86.28
38716;BME280;24833;49.324;8.694;2023-04-01T15:55:27;98525.47;;;10.28;86.22
38716;BME280;24833;49.324;8.694;2023-04-01T16:12:38;98544.28;;;10.33;86.08
38716;BME280;24833;49.324;8.694;2023-04-01T16:15:38;98550.66;;;10.32;86.34
38716;BME280;24833;49.324;8.694;2023-04-01T16:18:38;98554.72;;;10.34;86.13
38716;BME280;24833;49.324;8.694;2023-04-01T16:23:52;98560.44;;;10.38;86.03
38716;BME280;24833;49.324;8.694;2023-04-01T16:26:44;98556.72;;;10.39;86.27
38716;BME280;24833;49.324;8.694;2023-04-01T16:31:59;98561.03;;;10.40;85.63
38716;BME280;24833;49.324;8.694;2023-04-01T16:34:38;98564.50;;;10.41;86.41
38716;BME280;24833;49.324;8.694;2023-04-01T16:37:14;98569.84;;;10.41;86.18
38716;BME280;24833;49.324;8.694;2023-04-01T16:39:54;98566.13;;;10.42;86.25
38716;BME280;24833;49.324;8.694;2023-04-01T16:48:17;98573.09;;;10.43;86.04
38716;BME280;24833;49.324;8.694;2023-04-01T16:51:20;98576.59;;;10.43;85.72
38716;BME280;24833;49.324;8.694;2023-04-01T16:53:50;98579.28;;;10.43;85.74
38716;BME280;24833;49.324;8.694;2023-04-01T16:56:42;98585.44;;;10.44;85.59
38716;BME280;24833;49.324;8.694;2023-04-01T16:59:34;98578.66;;;10.41;85.85
38716;BME280;24833;49.324;8.694;2023-04-01T17:04:57;98594.91;;;10.40;86.03
38716;BME280;24833;49.324;8.694;2023-04-01T17:08:07;98595.94;;;10.39;85.75
38716;BME280;24833;49.324;8.694;2023-04-01T17:25:17;98616.41;;;10.26;84.77
38716;BME280;24833;49.324;8.694;2023-04-01T17:30:41;98617.69;;;10.24;84.19
38716;BME280;24833;49.324;8.694;2023-04-01T17:42:41;98633.03;;;10.22;84.10
38716;BME280;24833;49.324;8.694;2023-04-01T17:45:25;98644.75;;;10.21;84.35
38716;BME280;24833;49.324;8.694;2023-04-01T17:48:45;98645.78;;;10.20;84.28
38716;BME280;24833;49.324;8.694;2023-04-01T17:51:41;98644.97;;;10.19;84.64
38716;BME280;24833;49.324;8.694;2023-04-01T17:54:29;98662.25;;;10.17;84.33
38716;BME280;24833;49.324;8.694;2023-04-01T18:00:33;98659.66;;;10.10;84.32
38716;BME280;24833;49.324;8.694;2023-04-01T18:03:37;98658.44;;;10.06;84.11
38716;BME280;24833;49.324;8.694;2023-04-01T18:06:45;98656.44;;;10.01;84.04
38716;BME280;24833;49.324;8.694;2023-04-01T18:09:56;98660.59;;;9.97;83.94
38716;BME280;24833;49.324;8.694;2023-04-01T18:15:58;98669.28;;;9.86;84.52
38716;BME280;24833;49.324;8.694;2023-04-01T18:24:27;98685.97;;;9.75;84.02
38716;BME280;24833;49.324;8.694;2023-04-01T18:27:04;98684.00;;;9.70;83.93
38716;BME280;24833;49.324;8.694;2023-04-01T18:29:54;98691.59;;;9.67;84.37
38716;BME280;24833;49.324;8.694;2023-04-01T18:32:34;98686.72;;;9.64;84.45
38716;BME280;24833;49.324;8.694;2023-04-01T18:36:03;98698.00;;;9.59;83.87
38716;BME280;24833;49.324;8.694;2023-04-01T18:38:41;98699.44;;;9.55;84.11
38716;BME280;24833;49.324;8.694;2023-04-01T18:41:21;98706.63;;;9.54;84.28
38716;BME280;24833;49.324;8.694;2023-04-01T18:44:03;98709.75;;;9.51;84.24
38716;BME280;24833;49.324;8.694;2023-04-01T18:49:53;98720.44;;;9.45;83.92
38716;BME280;24833;49.324;8.694;2023-04-01T18:52:40;98729.06;;;9.40;83.87
38716;BME280;24833;49.324;8.694;2023-04-01T18:55:35;98725.81;;;9.38;84.08
38716;BME280;24833;49.324;8.694;2023-04-01T19:01:26;98735.25;;;9.34;83.90
38716;BME280;24833;49.324;8.694;2023-04-01T19:10:40;98754.97;;;9.26;84.15
38716;BME280;24833;49.324;8.694;2023-04-01T19:13:52;98765.84;;;9.25;84.19
38716;BME280;24833;49.324;8.694;2023-04-01T19:17:07;98757.25;;;9.23;84.60
38716;BME280;24833;49.324;8.694;2023-04-01T19:20:00;98764.84;;;9.19;84.20
38716;BME280;24833;49.324;8.694;2023-04-01T19:28:47;98765.28;;;9.16;84.09
38716;BME280;24833;49.324;8.694;2023-04-01T19:31:44;98765.47;;;9.15;84.11
38716;BME280;24833;49.324;8.694;2023-04-01T19:37:59;98770.19;;;9.13;83.83
38716;BME280;24833;49.324;8.694;2023-04-01T19:40:53;98769.38;;;9.12;84.14
38716;BME280;24833;49.324;8.694;2023-04-01T19:43:50;98770.63;;;9.10;84.21
38716;BME280;24833;49.324;8.694;2023-04-01T19:52:23;98773.69;;;9.07;84.01
38716;BME280;24833;49.324;8.694;2023-04-01T20:00:34;98784.56;;;9.05;84.18
38716;BME280;24833;49.324;8.694;2023-04-01T20:03:33;98778.41;;;9.05;84.08
38716;BME280;24833;49.324;8.694;2023-04-01T20:06:27;98789.06;;;9.05;84.17
38716;BME280;24833;49.324;8.694;2023-04-01T20:09:29;98788.44;;;9.02;83.77
38716;BME280;24833;49.324;8.694;2023-04-01T20:12:48;98785.78;;;9.02;84.13
38716;BME280;24833;49.324;8.694;2023-04-01T20:15:43;98792.94;;;9.02;84.01
38716;BME280;24833;49.324;8.694;2023-04-01T20:18:23;98800.13;;;9.01;84.55
38716;BME280;24833;49.324;8.694;2023-04-01T20:21:36;98797.47;;;9.01;84.46
38716;BME280;24833;49.324;8.694;2023-04-01T20:24:15;98811.81;;;9.00;84.11
38716;BME280;24833;49.324;8.694;2023-04-01T20:26:58;98820.81;;;8.99;84.30
38716;BME280;24833;49.324;8.694;2023-04-01T20:29:34;98816.53;;;8.98;85.00
38716;BME280;24833;49.324;8.694;2023-04-01T20:40:52;98816.13;;;8.95;84.60
38716;BME280;24833;49.324;8.694;2023-04-01T20:44:12;98822.25;;;8.95;84.63
38716;BME280;24833;49.324;8.694;2023-04-01T20:53:05;98836.81;;;8.93;84.73
38716;BME280;24833;49.324;8.694;2023-04-01T21:01:47;98838.66;;;8.92;84.41
38716;BME280;24833;49.324;8.694;2023-04-01T21:05:03;98837.03;;;8.91;84.69
38716;BME280;24833;49.324;8.694;2023-04-01T21:07:54;98840.72;;;8.90;84.81
38716;BME280;24833;49.324;8.694;2023-04-01T21:11:20;98843.38;;;8.90;84.29
38716;BME280;24833;49.324;8.694;2023-04-01T21:16:46;98840.09;;;8.88;84.86
38716;BME280;24833;49.324;8.694;2023-04-01T21:26:26;98850.56;;;8.83;84.66
38716;BME280;24833;49.324;8.694;2023-04-01T21:32:11;98852.59;;;8.81;84.90
38716;BME280;24833;49.324;8.694;2023-04-01T21:43:57;98866.53;;;8.77;84.50
38716;BME280;24833;49.324;8.694;2023-04-01T21:49:41;98864.88;;;8.76;84.83
38716;BME280;24833;49.324;8.694;2023-04-01T22:07:45;98897.47;;;8.71;84.90
38716;BME280;24833;49.324;8.694;2023-04-01T22:10:59;98899.31;;;8.70;84.49
38716;BME280;24833;49.324;8.694;2023-04-01T22:13:41;98900.13;;;8.71;85.12
38716;BME280;24833;49.324;8.694;2023-04-01T22:16:45;98902.16;;;8.69;84.63
38716;BME280;24833;49.324;8.694;2023-04-01T22:19:48;98902.16;;;8.69;84.70
38716;BME280;24833;49.324;8.694;2023-04-01T22:22:49;98902.16;;;8.69;84.77
38716;BME280;24833;49.324;8.694;2023-04-01T22:25:32;98905.84;;;8.68;84.75
38716;BME280;24833;49.324;8.694;2023-04-01T22:31:01;98913.00;;;8.67;85.19
38716;BME280;24833;49.324;8.694;2023-04-01T22:33:38;98915.66;;;8.67;84.70
38716;BME280;24833;49.324;8.694;2023-04-01T22:36:30;98912.19;;;8.67;84.62
38716;BME280;24833;49.324;8.694;2023-04-01T22:39:45;98915.88;;;8.66;84.98
38716;BME280;24833;49.324;8.694;2023-04-01T22:42:42;98922.22;;;8.65;84.85
38716;BME280;24833;49.324;8.694;2023-04-01T22:48:07;98922.63;;;8.62;84.57
38716;BME280;24833;49.324;8.694;2023-04-01T22:51:06;98927.34;;;8.60;84.97
38716;BME280;24833;49.324;8.694;2023-04-01T22:56:35;98921.78;;;8.55;85.65
38716;BME280;24833;49.324;8.694;2023-04-01T22:59:20;98925.91;;;8.51;85.31
38716;BME280;24833;49.324;8.694;2023-04-01T23:02:29;98934.91;;;8.50;84.65
38716;BME280;24833;49.324;8.694;2023-04-01T23:05:00;98928.97;;;8.48;85.81
38716;BME280;24833;49.324;8.694;2023-04-01T23:10:43;98935.31;;;8.46;85.70
38716;BME280;24833;49.324;8.694;2023-04-01T23:13:22;98937.34;;;8.44;85.26
38716;BME280;24833;49.324;8.694;2023-04-01T23:15:52;98939.00;;;8.45;86.18
38716;BME280;24833;49.324;8.694;2023-04-01T23:18:50;98936.53;;;8.44;85.68
38716;BME280;24833;49.324;8.694;2023-04-01T23:21:44;98944.69;;;8.42;85.90
38716;BME280;24833;49.324;8.694;2023-04-01T23:24:50;98945.72;;;8.41;84.97
38716;BME280;24833;49.324;8.694;2023-04-01T23:27:30;98958.22;;;8.41;85.19